sensor_id;sensor_type;location;lat;lon;timestamp;pressure;altitude;pressure_sealevel;temperature;humidity
43312;BME280;30041;48.300;16.352;2023-09-08T00:02:06;100405.09;;;22.99;49.42
43312;BME280;30041;48.300;16.352;2023-09-08T00:04:32;100406.34;;;22.97;49.67
43312;BME280;30041;48.300;16.352;2023-09-08T00:06:57;100403.41;;;22.98;49.41
43312;BME280;30041;48.300;16.352;2023-09-08T00:09:23;100408.22;;;22.96;49.36
43312;BME280;30041;48.300;16.352;2023-09-08T00:11:48;100405.53;;;22.96;49.18
43312;BME280;30041;48.300;16.352;2023-09-08T00:14:14;100402.59;;;22.98;49.01
43312;BME280;30041;48.300;16.352;2023-09-08T00:16:39;100400.13;;;22.96;49.22
43312;BME280;30041;48.300;16.352;2023-09-08T00:19:05;100399.91;;;22.98;49.10
43312;BME280;30041;48.300;16.352;2023-09-08T00:21:30;100401.78;;;22.97;49.07
43312;BME280;30041;48.300;16.352;2023-09-08T00:23:56;100396.59;;;22.96;49.13
43312;BME280;30041;48.300;16.352;2023-09-08T00:26:21;100399.31;;;22.96;48.88
43312;BME280;30041;48.300;16.352;2023-09-08T00:28:47;100395.53;;;22.97;48.93
43312;BME280;30041;48.300;16.352;2023-09-08T00:31:13;100395.78;;;22.95;48.96
43312;BME280;30041;48.300;16.352;2023-09-08T00:33:39;100386.81;;;22.95;48.93
43312;BME280;30041;48.300;16.352;2023-09-08T00:36:05;100391.19;;;22.96;49.06
43312;BME280;30041;48.300;16.352;2023-09-08T00:38:31;100393.28;;;22.94;48.95
43312;BME280;30041;48.300;16.352;2023-09-08T00:40:56;100389.78;;;22.93;48.78
43312;BME280;30041;48.300;16.352;2023-09-08T00:43:22;100388.94;;;22.93;48.83
43312;BME280;30041;48.300;16.352;2023-09-08T00:45:48;100387.50;;;22.90;48.81
43312;BME280;30041;48.300;16.352;2023-09-08T00:48:13;100383.78;;;22.91;48.99
43312;BME280;30041;48.300;16.352;2023-09-08T00:50:39;100382.94;;;22.91;49.12
43312;BME280;30041;48.300;16.352;2023-09-08T00:53:07;100378.59;;;22.90;48.98
43312;BME280;30041;48.300;16.352;2023-09-08T00:55:34;100371.88;;;22.92;48.97
43312;BME280;30041;48.300;16.352;2023-09-08T00:58:01;100377.91;;;22.94;48.88
43312;BME280;30041;48.300;16.352;2023-09-08T01:00:27;100376.47;;;22.92;48.76
43312;BME280;30041;48.300;16.352;2023-09-08T01:02:52;100373.78;;;22.92;48.70
43312;BME280;30041;48.300;16.352;2023-09-08T01:05:19;100379.19;;;22.92;48.43
43312;BME280;30041;48.300;16.352;2023-09-08T01:07:46;100371.53;;;22.89;48.58
43312;BME280;30041;48.300;16.352;2023-09-08T01:10:13;100384.47;;;22.87;48.62
43312;BME280;30041;48.300;16.352;2023-09-08T01:12:40;100376.94;;;22.89;48.50
43312;BME280;30041;48.300;16.352;2023-09-08T01:15:06;100375.50;;;22.86;48.40
43312;BME280;30041;48.300;16.352;2023-09-08T01:17:31;100375.50;;;22.86;48.73
43312;BME280;30041;48.300;16.352;2023-09-08T01:20:22;100374.47;;;22.87;48.47
43312;BME280;30041;48.300;16.352;2023-09-08T01:23:10;100376.56;;;22.85;48.32
43312;BME280;30041;48.300;16.352;2023-09-08T01:28:34;100378.19;;;22.86;48.28
43312;BME280;30041;48.300;16.352;2023-09-08T01:31:00;100368.69;;;22.84;48.20
43312;BME280;30041;48.300;16.352;2023-09-08T01:33:26;100367.03;;;22.83;48.23
43312;BME280;30041;48.300;16.352;2023-09-08T01:35:52;100374.09;;;22.84;48.44
43312;BME280;30041;48.300;16.352;2023-09-08T01:38:18;100362.47;;;22.83;48.22
43312;BME280;30041;48.300;16.352;2023-09-08T01:40:44;100359.97;;;22.82;48.35
43312;BME280;30041;48.300;16.352;2023-09-08T01:43:09;100362.47;;;22.83;48.14
43312;BME280;30041;48.300;16.352;2023-09-08T01:45:35;100358.94;;;22.83;48.29
43312;BME280;30041;48.300;16.352;2023-09-08T01:48:00;100363.75;;;22.80;48.11
43312;BME280;30041;48.300;16.352;2023-09-08T01:50:26;100362.09;;;22.79;48.38
43312;BME280;30041;48.300;16.352;2023-09-08T01:52:52;100360.22;;;22.80;47.85
43312;BME280;30041;48.300;16.352;2023-09-08T01:55:17;100365.03;;;22.78;48.40
43312;BME280;30041;48.300;16.352;2023-09-08T01:57:43;100363.38;;;22.77;48.13
43312;BME280;30041;48.300;16.352;2023-09-08T02:00:11;100362.31;;;22.78;48.29
43312;BME280;30041;48.300;16.352;2023-09-08T02:02:36;100364.44;;;22.76;48.26
43312;BME280;30041;48.300;16.352;2023-09-08T02:05:02;100367.50;;;22.79;48.05
43312;BME280;30041;48.300;16.352;2023-09-08T02:07:27;100365.84;;;22.78;48.33
43312;BME280;30041;48.300;16.352;2023-09-08T02:09:53;100365.25;;;22.76;48.28
43312;BME280;30041;48.300;16.352;2023-09-08T02:12:18;100357.97;;;22.77;48.08
43312;BME280;30041;48.300;16.352;2023-09-08T02:14:44;100363.38;;;22.77;47.84
43312;BME280;30041;48.300;16.352;2023-09-08T02:17:09;100362.53;;;22.76;48.01
43312;BME280;30041;48.300;16.352;2023-09-08T02:19:35;100365.47;;;22.75;47.95
43312;BME280;30041;48.300;16.352;2023-09-08T02:22:00;100361.72;;;22.76;47.99
43312;BME280;30041;48.300;16.352;2023-09-08T02:24:26;100356.53;;;22.74;47.89
43312;BME280;30041;48.300;16.352;2023-09-08T02:26:53;100363.63;;;22.75;47.74
43312;BME280;30041;48.300;16.352;2023-09-08T02:29:18;100359.25;;;22.74;48.07
43312;BME280;30041;48.300;16.352;2023-09-08T02:31:44;100366.31;;;22.75;47.86
43312;BME280;30041;48.300;16.352;2023-09-08T02:34:09;100364.44;;;22.76;48.00
43312;BME280;30041;48.300;16.352;2023-09-08T02:36:35;100363.00;;;22.73;47.94
43312;BME280;30041;48.300;16.352;2023-09-08T02:39:00;100366.75;;;22.72;47.87
43312;BME280;30041;48.300;16.352;2023-09-08T02:41:26;100361.13;;;22.74;47.70
43312;BME280;30041;48.300;16.352;2023-09-08T02:43:51;100363.84;;;22.74;47.75
43312;BME280;30041;48.300;16.352;2023-09-08T02:46:17;100365.13;;;22.71;47.97
43312;BME280;30041;48.300;16.352;2023-09-08T02:48:42;100364.91;;;22.73;48.14
43312;BME280;30041;48.300;16.352;2023-09-08T02:51:08;100359.72;;;22.71;47.96
43312;BME280;30041;48.300;16.352;2023-09-08T02:53:33;100359.50;;;22.73;47.96
43312;BME280;30041;48.300;16.352;2023-09-08T02:55:59;100362.19;;;22.73;48.03
43312;BME280;30041;48.300;16.352;2023-09-08T02:58:26;100356.19;;;22.71;47.95
43312;BME280;30041;48.300;16.352;2023-09-08T03:00:52;100356.19;;;22.71;47.69
43312;BME280;30041;48.300;16.352;2023-09-08T03:03:20;100354.31;;;22.71;47.79
43312;BME280;30041;48.300;16.352;2023-09-08T03:05:46;100357.22;;;22.70;47.68
43312;BME280;30041;48.300;16.352;2023-09-08T03:08:12;100350.19;;;22.69;47.92
43312;BME280;30041;48.300;16.352;2023-09-08T03:10:37;100350.19;;;22.69;47.67
43312;BME280;30041;48.300;16.352;2023-09-08T03:13:04;100352.28;;;22.67;47.89
43312;BME280;30041;48.300;16.352;2023-09-08T03:15:30;100351.47;;;22.66;47.79
43312;BME280;30041;48.300;16.352;2023-09-08T03:17:56;100353.13;;;22.67;47.85
43312;BME280;30041;48.300;16.352;2023-09-08T03:20:22;100356.03;;;22.66;47.86
43312;BME280;30041;48.300;16.352;2023-09-08T03:22:48;100350.63;;;22.66;47.64
43312;BME280;30041;48.300;16.352;2023-09-08T03:25:14;100349.00;;;22.65;47.57
43312;BME280;30041;48.300;16.352;2023-09-08T03:27:40;100355.22;;;22.65;47.83
43312;BME280;30041;48.300;16.352;2023-09-08T03:30:06;100360.84;;;22.64;47.75
43312;BME280;30041;48.300;16.352;2023-09-08T03:32:31;100355.22;;;22.65;47.52
43312;BME280;30041;48.300;16.352;2023-09-08T03:34:57;100358.13;;;22.64;47.64
43312;BME280;30041;48.300;16.352;2023-09-08T03:37:23;100356.72;;;22.61;47.67
43312;BME280;30041;48.300;16.352;2023-09-08T03:39:48;100361.31;;;22.61;47.82
43312;BME280;30041;48.300;16.352;2023-09-08T03:42:13;100357.31;;;22.63;47.45
43312;BME280;30041;48.300;16.352;2023-09-08T03:44:39;100366.25;;;22.64;47.36
43312;BME280;30041;48.300;16.352;2023-09-08T03:47:05;100359.81;;;22.65;47.43
43312;BME280;30041;48.300;16.352;2023-09-08T03:49:30;100362.94;;;22.62;47.46
43312;BME280;30041;48.300;16.352;2023-09-08T03:51:56;100363.19;;;22.60;47.37
43312;BME280;30041;48.300;16.352;2023-09-08T03:54:21;100364.00;;;22.61;47.41
43312;BME280;30041;48.300;16.352;2023-09-08T03:56:47;100367.31;;;22.63;47.45
43312;BME280;30041;48.300;16.352;2023-09-08T03:59:12;100366.72;;;22.61;47.68
43312;BME280;30041;48.300;16.352;2023-09-08T04:01:38;100354.84;;;22.62;47.38
43312;BME280;30041;48.300;16.352;2023-09-08T04:04:03;100367.53;;;22.61;47.28
43312;BME280;30041;48.300;16.352;2023-09-08T04:06:29;100371.28;;;22.60;47.16
43312;BME280;30041;48.300;16.352;2023-09-08T04:08:54;100367.78;;;22.59;47.54
43312;BME280;30041;48.300;16.352;2023-09-08T04:11:20;100363.78;;;22.62;47.25
43312;BME280;30041;48.300;16.352;2023-09-08T04:13:45;100366.25;;;22.64;47.30
43312;BME280;30041;48.300;16.352;2023-09-08T04:16:11;100368.72;;;22.65;46.77
43312;BME280;30041;48.300;16.352;2023-09-08T04:18:36;100368.13;;;22.63;48.26
43312;BME280;30041;48.300;16.352;2023-09-08T04:21:02;100362.63;;;22.70;48.80
43312;BME280;30041;48.300;16.352;2023-09-08T04:23:27;100362.41;;;22.71;49.22
43312;BME280;30041;48.300;16.352;2023-09-08T04:25:53;100371.13;;;22.73;49.00
43312;BME280;30041;48.300;16.352;2023-09-08T04:28:18;100367.22;;;22.69;48.33
43312;BME280;30041;48.300;16.352;2023-09-08T04:30:44;100369.53;;;22.66;48.19
43312;BME280;30041;48.300;16.352;2023-09-08T04:33:09;100376.22;;;22.63;47.86
43312;BME280;30041;48.300;16.352;2023-09-08T04:35:35;100373.53;;;22.63;47.92
43312;BME280;30041;48.300;16.352;2023-09-08T04:38:00;100377.28;;;22.62;47.96
43312;BME280;30041;48.300;16.352;2023-09-08T04:40:26;100376.03;;;22.46;46.25
43312;BME280;30041;48.300;16.352;2023-09-08T04:42:51;100379.31;;;22.30;47.73
43312;BME280;30041;48.300;16.352;2023-09-08T04:45:17;100383.84;;;22.36;47.99
43312;BME280;30041;48.300;16.352;2023-09-08T04:47:42;100385.84;;;22.41;47.71
43312;BME280;30041;48.300;16.352;2023-09-08T04:50:08;100384.56;;;22.43;47.71
43312;BME280;30041;48.300;16.352;2023-09-08T04:52:34;100385.19;;;22.45;47.75
43312;BME280;30041;48.300;16.352;2023-09-08T04:54:59;100384.75;;;22.48;47.88
43312;BME280;30041;48.300;16.352;2023-09-08T04:57:25;100387.81;;;22.52;47.86
43312;BME280;30041;48.300;16.352;2023-09-08T04:59:50;100387.19;;;22.50;47.47
43312;BME280;30041;48.300;16.352;2023-09-08T05:02:16;100394.03;;;22.52;47.47
43312;BME280;30041;48.300;16.352;2023-09-08T05:04:41;100388.91;;;22.63;47.04
43312;BME280;30041;48.300;16.352;2023-09-08T05:07:07;100392.66;;;22.62;47.78
43312;BME280;30041;48.300;16.352;2023-09-08T05:09:32;100391.09;;;22.54;48.06
43312;BME280;30041;48.300;16.352;2023-09-08T05:11:58;100398.59;;;22.52;48.35
43312;BME280;30041;48.300;16.352;2023-09-08T05:14:23;100402.72;;;22.54;48.77
43312;BME280;30041;48.300;16.352;2023-09-08T05:16:49;100393.84;;;22.66;48.40
43312;BME280;30041;48.300;16.352;2023-09-08T05:19:14;100395.75;;;22.65;48.65
43312;BME280;30041;48.300;16.352;2023-09-08T05:21:40;100396.34;;;22.67;48.65
43312;BME280;30041;48.300;16.352;2023-09-08T05:24:06;100390.72;;;22.69;48.61
43312;BME280;30041;48.300;16.352;2023-09-08T05:26:32;100399.78;;;22.74;49.17
43312;BME280;30041;48.300;16.352;2023-09-08T05:28:57;100400.50;;;22.33;51.89
43312;BME280;30041;48.300;16.352;2023-09-08T05:31:23;100404.66;;;22.10;51.35
43312;BME280;30041;48.300;16.352;2023-09-08T05:33:48;100406.34;;;22.05;50.84
43312;BME280;30041;48.300;16.352;2023-09-08T05:36:14;100406.28;;;21.93;50.41
43312;BME280;30041;48.300;16.352;2023-09-08T05:38:39;100411.47;;;21.88;50.27
43312;BME280;30041;48.300;16.352;2023-09-08T05:41:04;100410.44;;;21.89;50.15
43312;BME280;30041;48.300;16.352;2023-09-08T05:43:30;100412.53;;;21.87;50.18
43312;BME280;30041;48.300;16.352;2023-09-08T05:45:56;100411.38;;;21.76;50.42
43312;BME280;30041;48.300;16.352;2023-09-08T05:48:21;100418.22;;;21.79;50.51
43312;BME280;30041;48.300;16.352;2023-09-08T05:50:47;100416.13;;;21.81;50.50
43312;BME280;30041;48.300;16.352;2023-09-08T05:53:12;100414.28;;;21.74;50.83
43312;BME280;30041;48.300;16.352;2023-09-08T05:55:38;100414.91;;;21.76;50.77
43312;BME280;30041;48.300;16.352;2023-09-08T05:58:03;100415.97;;;21.75;50.82
43312;BME280;30041;48.300;16.352;2023-09-08T06:00:29;100416.41;;;21.72;50.74
43312;BME280;30041;48.300;16.352;2023-09-08T06:02:54;100418.25;;;21.72;51.00
43312;BME280;30041;48.300;16.352;2023-09-08T06:05:20;100418.44;;;21.77;50.86
43312;BME280;30041;48.300;16.352;2023-09-08T06:07:45;100421.19;;;21.95;50.50
43312;BME280;30041;48.300;16.352;2023-09-08T06:10:11;100418.50;;;22.14;50.64
43312;BME280;30041;48.300;16.352;2023-09-08T06:12:36;100415.97;;;22.19;50.57
43312;BME280;30041;48.300;16.352;2023-09-08T06:15:02;100415.25;;;22.30;50.20
43312;BME280;30041;48.300;16.352;2023-09-08T06:17:28;100412.19;;;22.45;50.18
43312;BME280;30041;48.300;16.352;2023-09-08T06:19:53;100409.34;;;22.40;50.03
43312;BME280;30041;48.300;16.352;2023-09-08T06:22:19;100404.53;;;22.61;49.92
43312;BME280;30041;48.300;16.352;2023-09-08T06:24:44;100408.22;;;22.48;50.08
43312;BME280;30041;48.300;16.352;2023-09-08T06:27:10;100408.22;;;22.48;49.68
43312;BME280;30041;48.300;16.352;2023-09-08T06:29:36;100413.59;;;22.48;49.97
43312;BME280;30041;48.300;16.352;2023-09-08T06:32:01;100415.03;;;22.50;49.99
43312;BME280;30041;48.300;16.352;2023-09-08T06:34:27;100413.38;;;22.68;49.75
43312;BME280;30041;48.300;16.352;2023-09-08T06:36:52;100415.03;;;22.69;49.71
43312;BME280;30041;48.300;16.352;2023-09-08T06:39:18;100408.06;;;22.79;49.55
43312;BME280;30041;48.300;16.352;2023-09-08T06:41:43;100408.56;;;22.70;49.53
43312;BME280;30041;48.300;16.352;2023-09-08T06:44:09;100412.16;;;22.64;49.67
43312;BME280;30041;48.300;16.352;2023-09-08T06:46:34;100410.06;;;22.66;49.71
43312;BME280;30041;48.300;16.352;2023-09-08T06:49:00;100411.75;;;22.67;49.70
43312;BME280;30041;48.300;16.352;2023-09-08T06:51:25;100408.88;;;22.62;49.32
43312;BME280;30041;48.300;16.352;2023-09-08T06:53:55;100406.44;;;22.42;49.74
43312;BME280;30041;48.300;16.352;2023-09-08T06:56:21;100405.16;;;22.44;50.06
43312;BME280;30041;48.300;16.352;2023-09-08T06:58:46;100403.31;;;22.56;49.89
43312;BME280;30041;48.300;16.352;2023-09-08T07:01:12;100406.41;;;22.60;49.86
43312;BME280;30041;48.300;16.352;2023-09-08T07:03:37;100409.72;;;22.62;49.94
43312;BME280;30041;48.300;16.352;2023-09-08T07:06:03;100408.44;;;22.65;50.07
43312;BME280;30041;48.300;16.352;2023-09-08T07:08:28;100411.94;;;22.65;49.84
43312;BME280;30041;48.300;16.352;2023-09-08T07:10:54;100410.91;;;22.66;49.64
43312;BME280;30041;48.300;16.352;2023-09-08T07:13:19;100405.72;;;22.65;50.01
43312;BME280;30041;48.300;16.352;2023-09-08T07:15:45;100405.13;;;22.63;49.99
43312;BME280;30041;48.300;16.352;2023-09-08T07:18:10;100404.44;;;22.67;49.89
43312;BME280;30041;48.300;16.352;2023-09-08T07:20:36;100402.34;;;22.69;50.21
43312;BME280;30041;48.300;16.352;2023-09-08T07:23:01;100403.63;;;22.67;50.25
43312;BME280;30041;48.300;16.352;2023-09-08T07:25:27;100409.63;;;22.69;49.96
43312;BME280;30041;48.300;16.352;2023-09-08T07:27:52;100400.13;;;22.66;50.13
43312;BME280;30041;48.300;16.352;2023-09-08T07:30:18;100399.66;;;22.69;50.10
43312;BME280;30041;48.300;16.352;2023-09-08T07:32:43;100400.25;;;22.71;50.30
43312;BME280;30041;48.300;16.352;2023-09-08T07:35:09;100400.25;;;22.71;50.55
43312;BME280;30041;48.300;16.352;2023-09-08T07:37:34;100398.56;;;22.70;50.14
43312;BME280;30041;48.300;16.352;2023-09-08T07:40:00;100396.72;;;22.71;50.42
43312;BME280;30041;48.300;16.352;2023-09-08T07:42:25;100400.25;;;22.71;50.39
43312;BME280;30041;48.300;16.352;2023-09-08T07:44:51;100396.41;;;22.79;50.29
43312;BME280;30041;48.300;16.352;2023-09-08T07:47:16;100405.50;;;22.66;49.89
43312;BME280;30041;48.300;16.352;2023-09-08T07:49:45;100404.16;;;22.57;50.11
43312;BME280;30041;48.300;16.352;2023-09-08T07:52:11;100397.56;;;22.53;49.88
43312;BME280;30041;48.300;16.352;2023-09-08T07:54:37;100403.78;;;22.53;49.92
43312;BME280;30041;48.300;16.352;2023-09-08T07:57:02;100404.41;;;22.55;49.65
43312;BME280;30041;48.300;16.352;2023-09-08T07:59:28;100397.72;;;22.58;49.73
43312;BME280;30041;48.300;16.352;2023-09-08T08:01:53;100403.72;;;22.60;49.84
43312;BME280;30041;48.300;16.352;2023-09-08T08:04:19;100395.97;;;22.64;50.17
43312;BME280;30041;48.300;16.352;2023-09-08T08:06:44;100397.75;;;22.70;50.24
43312;BME280;30041;48.300;16.352;2023-09-08T08:09:10;100402.13;;;22.71;50.42
43312;BME280;30041;48.300;16.352;2023-09-08T08:11:35;100397.31;;;22.73;50.27
43312;BME280;30041;48.300;16.352;2023-09-08T08:14:01;100392.06;;;22.78;50.16
43312;BME280;30041;48.300;16.352;2023-09-08T08:16:26;100394.28;;;22.81;50.28
43312;BME280;30041;48.300;16.352;2023-09-08T08:18:52;100385.75;;;22.84;49.98
43312;BME280;30041;48.300;16.352;2023-09-08T08:21:17;100386.78;;;22.83;49.65
43312;BME280;30041;48.300;16.352;2023-09-08T08:23:43;100391.44;;;22.76;50.03
43312;BME280;30041;48.300;16.352;2023-09-08T08:26:08;100378.41;;;22.73;50.21
43312;BME280;30041;48.300;16.352;2023-09-08T08:28:34;100378.97;;;22.75;50.21
43312;BME280;30041;48.300;16.352;2023-09-08T08:31:00;100380.03;;;22.74;50.38
43312;BME280;30041;48.300;16.352;2023-09-08T08:33:25;100373.13;;;22.78;50.50
43312;BME280;30041;48.300;16.352;2023-09-08T08:35:51;100373.72;;;22.80;50.42
43312;BME280;30041;48.300;16.352;2023-09-08T08:38:17;100371.84;;;22.80;50.63
43312;BME280;30041;48.300;16.352;2023-09-08T08:40:43;100370.94;;;22.87;50.69
43312;BME280;30041;48.300;16.352;2023-09-08T08:43:09;100369.97;;;22.81;50.60
43312;BME280;30041;48.300;16.352;2023-09-08T08:45:35;100369.75;;;22.83;50.62
43312;BME280;30041;48.300;16.352;2023-09-08T08:48:04;100355.84;;;22.79;50.60
43312;BME280;30041;48.300;16.352;2023-09-08T08:50:30;100354.81;;;22.80;50.96
43312;BME280;30041;48.300;16.352;2023-09-08T08:52:56;100362.94;;;22.80;50.95
43312;BME280;30041;48.300;16.352;2023-09-08T08:55:25;100363.97;;;22.79;50.91
43312;BME280;30041;48.300;16.352;2023-09-08T08:57:51;100361.63;;;22.83;50.45
43312;BME280;30041;48.300;16.352;2023-09-08T09:00:17;100364.56;;;22.81;50.56
43312;BME280;30041;48.300;16.352;2023-09-08T09:02:43;100362.69;;;22.82;50.79
43312;BME280;30041;48.300;16.352;2023-09-08T09:05:11;100357.88;;;22.84;50.72
43312;BME280;30041;48.300;16.352;2023-09-08T09:07:38;100359.16;;;22.81;50.94
43312;BME280;30041;48.300;16.352;2023-09-08T09:10:05;100352.47;;;22.84;50.79
43312;BME280;30041;48.300;16.352;2023-09-08T09:12:31;100354.94;;;22.85;50.84
43312;BME280;30041;48.300;16.352;2023-09-08T09:14:58;100347.91;;;22.84;50.99
43312;BME280;30041;48.300;16.352;2023-09-08T09:17:24;100354.34;;;22.83;50.93
43312;BME280;30041;48.300;16.352;2023-09-08T09:19:49;100353.88;;;22.86;50.69
43312;BME280;30041;48.300;16.352;2023-09-08T09:22:20;100345.34;;;22.89;50.73
43312;BME280;30041;48.300;16.352;2023-09-08T09:24:45;100347.94;;;22.96;50.49
43312;BME280;30041;48.300;16.352;2023-09-08T09:27:11;100343.88;;;23.05;50.54
43312;BME280;30041;48.300;16.352;2023-09-08T09:29:47;100344.69;;;23.06;50.51
43312;BME280;30041;48.300;16.352;2023-09-08T09:32:13;100342.59;;;23.08;50.08
43312;BME280;30041;48.300;16.352;2023-09-08T09:34:50;100338.94;;;23.02;50.48
43312;BME280;30041;48.300;16.352;2023-09-08T09:37:17;100342.72;;;23.13;50.45
43312;BME280;30041;48.300;16.352;2023-09-08T09:39:54;100343.56;;;23.25;49.73
43312;BME280;30041;48.300;16.352;2023-09-08T09:42:20;100339.09;;;23.31;49.67
43312;BME280;30041;48.300;16.352;2023-09-08T09:44:52;100337.47;;;23.30;49.77
43312;BME280;30041;48.300;16.352;2023-09-08T09:47:19;100342.50;;;23.26;49.52
43312;BME280;30041;48.300;16.352;2023-09-08T09:49:46;100340.75;;;23.20;49.85
43312;BME280;30041;48.300;16.352;2023-09-08T09:52:13;100341.78;;;23.19;49.97
43312;BME280;30041;48.300;16.352;2023-09-08T09:54:43;100335.94;;;23.22;49.48
43312;BME280;30041;48.300;16.352;2023-09-08T09:57:13;100334.16;;;23.16;49.72
43312;BME280;30041;48.300;16.352;2023-09-08T09:59:40;100323.34;;;23.16;49.81
43312;BME280;30041;48.300;16.352;2023-09-08T10:02:11;100325.22;;;23.15;49.50
43312;BME280;30041;48.300;16.352;2023-09-08T10:04:38;100323.78;;;23.13;49.66
43312;BME280;30041;48.300;16.352;2023-09-08T10:07:05;100320.25;;;23.12;49.52
43312;BME280;30041;48.300;16.352;2023-09-08T10:09:31;100320.03;;;23.14;49.61
43312;BME280;30041;48.300;16.352;2023-09-08T10:12:00;100319.44;;;23.12;49.48
43312;BME280;30041;48.300;16.352;2023-09-08T10:14:28;100320.03;;;23.14;49.97
43312;BME280;30041;48.300;16.352;2023-09-08T10:16:57;100318.84;;;23.10;49.91
43312;BME280;30041;48.300;16.352;2023-09-08T10:19:24;100314.53;;;23.20;49.85
43312;BME280;30041;48.300;16.352;2023-09-08T10:21:51;100317.34;;;23.26;49.38
43312;BME280;30041;48.300;16.352;2023-09-08T10:24:27;100310.66;;;23.28;49.53
43312;BME280;30041;48.300;16.352;2023-09-08T10:27:12;100311.25;;;23.30;49.24
43312;BME280;30041;48.300;16.352;2023-09-08T10:29:38;100309.59;;;23.29;49.22
43312;BME280;30041;48.300;16.352;2023-09-08T10:32:04;100302.78;;;23.27;49.55
43312;BME280;30041;48.300;16.352;2023-09-08T10:34:31;100302.53;;;23.28;49.31
43312;BME280;30041;48.300;16.352;2023-09-08T10:36:58;100300.09;;;23.27;49.50
43312;BME280;30041;48.300;16.352;2023-09-08T10:39:34;100306.41;;;23.20;49.58
43312;BME280;30041;48.300;16.352;2023-09-08T10:42:20;100295.94;;;23.12;49.74
43312;BME280;30041;48.300;16.352;2023-09-08T10:47:18;100295.38;;;23.34;49.73
43312;BME280;30041;48.300;16.352;2023-09-08T10:49:45;100288.06;;;23.46;49.80
43312;BME280;30041;48.300;16.352;2023-09-08T10:52:12;100289.25;;;23.38;49.30
43312;BME280;30041;48.300;16.352;2023-09-08T10:54:44;100290.34;;;23.49;48.92
43312;BME280;30041;48.300;16.352;2023-09-08T10:57:14;100285.50;;;23.39;49.50
43312;BME280;30041;48.300;16.352;2023-09-08T11:00:00;100279.97;;;23.34;49.45
43312;BME280;30041;48.300;16.352;2023-09-08T11:02:55;100280.22;;;23.56;48.87
43312;BME280;30041;48.300;16.352;2023-09-08T11:05:21;100278.31;;;23.45;48.67
43312;BME280;30041;48.300;16.352;2023-09-08T11:07:48;100286.66;;;23.44;48.91
43312;BME280;30041;48.300;16.352;2023-09-08T11:10:13;100283.38;;;23.41;48.79
43312;BME280;30041;48.300;16.352;2023-09-08T11:12:39;100275.97;;;23.49;48.50
43312;BME280;30041;48.300;16.352;2023-09-08T11:15:06;100283.63;;;23.52;48.67
43312;BME280;30041;48.300;16.352;2023-09-08T11:17:33;100277.25;;;23.46;48.57
43312;BME280;30041;48.300;16.352;2023-09-08T11:19:59;100275.97;;;23.49;48.55
43312;BME280;30041;48.300;16.352;2023-09-08T11:22:25;100274.44;;;23.41;48.74
43312;BME280;30041;48.300;16.352;2023-09-08T11:24:56;100278.81;;;23.42;48.85
43312;BME280;30041;48.300;16.352;2023-09-08T11:27:22;100278.91;;;23.47;48.73
43312;BME280;30041;48.300;16.352;2023-09-08T11:29:48;100270.44;;;23.55;48.47
43312;BME280;30041;48.300;16.352;2023-09-08T11:32:14;100272.56;;;23.53;48.78
43312;BME280;30041;48.300;16.352;2023-09-08T11:34:40;100267.50;;;23.45;48.83
43312;BME280;30041;48.300;16.352;2023-09-08T11:37:11;100268.56;;;23.44;48.65
43312;BME280;30041;48.300;16.352;2023-09-08T11:39:37;100266.91;;;23.55;48.71
43312;BME280;30041;48.300;16.352;2023-09-08T11:42:03;100265.63;;;23.46;48.10
43312;BME280;30041;48.300;16.352;2023-09-08T11:44:29;100271.25;;;23.44;47.68
43312;BME280;30041;48.300;16.352;2023-09-08T11:46:55;100263.16;;;23.44;48.24
43312;BME280;30041;48.300;16.352;2023-09-08T11:49:20;100258.47;;;23.51;48.59
43312;BME280;30041;48.300;16.352;2023-09-08T11:51:46;100259.63;;;23.44;48.52
43312;BME280;30041;48.300;16.352;2023-09-08T11:54:12;100258.81;;;23.43;48.40
43312;BME280;30041;48.300;16.352;2023-09-08T11:56:37;100253.28;;;23.38;48.72
43312;BME280;30041;48.300;16.352;2023-09-08T11:59:03;100252.91;;;23.34;48.52
43312;BME280;30041;48.300;16.352;2023-09-08T12:01:29;100254.59;;;23.35;48.72
43312;BME280;30041;48.300;16.352;2023-09-08T12:03:55;100241.50;;;23.32;48.57
43312;BME280;30041;48.300;16.352;2023-09-08T12:06:25;100251.03;;;23.35;48.58
43312;BME280;30041;48.300;16.352;2023-09-08T12:08:51;100248.34;;;23.47;48.29
43312;BME280;30041;48.300;16.352;2023-09-08T12:11:16;100240.44;;;23.57;47.94
43312;BME280;30041;48.300;16.352;2023-09-08T12:13:42;100243.72;;;23.59;47.84
43312;BME280;30041;48.300;16.352;2023-09-08T12:16:28;100234.69;;;23.53;48.12
43312;BME280;30041;48.300;16.352;2023-09-08T12:18:53;100240.56;;;23.50;48.44
43312;BME280;30041;48.300;16.352;2023-09-08T12:21:19;100236.09;;;23.56;47.83
43312;BME280;30041;48.300;16.352;2023-09-08T12:23:52;100233.25;;;23.51;47.81
43312;BME280;30041;48.300;16.352;2023-09-08T12:26:18;100233.25;;;23.51;47.80
43312;BME280;30041;48.300;16.352;2023-09-08T12:28:44;100224.81;;;23.47;48.11
43312;BME280;30041;48.300;16.352;2023-09-08T12:31:09;100229.41;;;23.47;47.47
43312;BME280;30041;48.300;16.352;2023-09-08T12:33:36;100223.75;;;23.48;47.59
43312;BME280;30041;48.300;16.352;2023-09-08T12:36:12;100229.63;;;23.45;47.50
43312;BME280;30041;48.300;16.352;2023-09-08T12:38:38;100221.28;;;23.47;47.67
43312;BME280;30041;48.300;16.352;2023-09-08T12:41:03;100217.75;;;23.46;47.48
43312;BME280;30041;48.300;16.352;2023-09-08T12:43:29;100222.22;;;23.52;47.58